Terminal Aerodrome Forecast
Issued by NWS

Current Version | Previous Version | Graphics & Text | Print | Product List | Glossary On
Versions: 1 2 3 4 5 6 7 8 9 10 11 12 13 14 15 16 17 18 19 20 21 22 23 24 25
000
FTUS41 KILN 210520
TAFLUK
TAF
KLUK 210520Z 2106/2206 00000KT P6SM OVC060
     FM210900 00000KT 2SM BR SCT050 BKN200
     FM211300 14003KT P6SM VCSH SCT040 BKN100
     FM211800 17007KT P6SM VCTS BKN050CB
     FM220100 18005KT P6SM SCT100=

USA.gov is the U.S. government's official web portal to all federal, state and local government web resources and services.